sensor_id;sensor_type;location;lat;lon;timestamp;pressure;altitude;pressure_sealevel;temperature;humidity
71774;BME280;59607;52.130;5.430;2023-03-21T00:01:53;101723.66;;;9.67;100.00
71774;BME280;59607;52.130;5.430;2023-03-21T00:04:23;101718.69;;;9.64;100.00
71774;BME280;59607;52.130;5.430;2023-03-21T00:06:54;101710.81;;;9.64;100.00
71774;BME280;59607;52.130;5.430;2023-03-21T00:09:20;101715.38;;;9.62;100.00
71774;BME280;59607;52.130;5.430;2023-03-21T00:11:49;101707.50;;;9.62;100.00
71774;BME280;59607;52.130;5.430;2023-03-21T00:14:19;101712.88;;;9.60;100.00
71774;BME280;59607;52.130;5.430;2023-03-21T00:16:49;101717.19;;;9.61;100.00
71774;BME280;59607;52.130;5.430;2023-03-21T00:19:18;101715.38;;;9.62;100.00
71774;BME280;59607;52.130;5.430;2023-03-21T00:22:00;101711.81;;;9.63;100.00
71774;BME280;59607;52.130;5.430;2023-03-21T00:24:37;101707.66;;;9.60;100.00
71774;BME280;59607;52.130;5.430;2023-03-21T00:27:10;101704.22;;;9.60;100.00
71774;BME280;59607;52.130;5.430;2023-03-21T00:29:59;101700.06;;;9.57;100.00
71774;BME280;59607;52.130;5.430;2023-03-21T00:32:25;101701.88;;;9.57;100.00
71774;BME280;59607;52.130;5.430;2023-03-21T00:34:58;101701.03;;;9.56;100.00
71774;BME280;59607;52.130;5.430;2023-03-21T00:37:45;101700.31;;;9.54;100.00
71774;BME280;59607;52.130;5.430;2023-03-21T00:40:12;101696.06;;;9.53;100.00
71774;BME280;59607;52.130;5.430;2023-03-21T00:42:56;101700.19;;;9.56;100.00
71774;BME280;59607;52.130;5.430;2023-03-21T00:45:25;101692.34;;;9.56;100.00
71774;BME280;59607;52.130;5.430;2023-03-21T00:47:52;101690.69;;;9.55;100.00
71774;BME280;59607;52.130;5.430;2023-03-21T00:50:21;101687.22;;;9.54;100.00
71774;BME280;59607;52.130;5.430;2023-03-21T00:52:47;101692.47;;;9.54;100.00
71774;BME280;59607;52.130;5.430;2023-03-21T00:55:16;101686.44;;;9.54;100.00
71774;BME280;59607;52.130;5.430;2023-03-21T00:57:43;101684.75;;;9.53;100.00
71774;BME280;59607;52.130;5.430;2023-03-21T01:00:33;101682.13;;;9.53;100.00
71774;BME280;59607;52.130;5.430;2023-03-21T01:03:04;101680.34;;;9.53;100.00
71774;BME280;59607;52.130;5.430;2023-03-21T01:05:49;101676.09;;;9.52;100.00
71774;BME280;59607;52.130;5.430;2023-03-21T01:08:46;101669.88;;;9.53;100.00
71774;BME280;59607;52.130;5.430;2023-03-21T01:11:21;101655.94;;;9.53;100.00
71774;BME280;59607;52.130;5.430;2023-03-21T01:13:48;101656.22;;;9.49;100.00
71774;BME280;59607;52.130;5.430;2023-03-21T01:16:32;101663.78;;;9.53;100.00
71774;BME280;59607;52.130;5.430;2023-03-21T01:19:06;101656.91;;;9.52;100.00
71774;BME280;59607;52.130;5.430;2023-03-21T01:21:47;101653.47;;;9.51;100.00
71774;BME280;59607;52.130;5.430;2023-03-21T01:24:14;101653.59;;;9.49;100.00
71774;BME280;59607;52.130;5.430;2023-03-21T01:26:46;101656.06;;;9.51;100.00
71774;BME280;59607;52.130;5.430;2023-03-21T01:29:12;101652.53;;;9.52;100.00
71774;BME280;59607;52.130;5.430;2023-03-21T01:31:43;101655.94;;;9.53;100.00
71774;BME280;59607;52.130;5.430;2023-03-21T01:34:11;101646.31;;;9.53;100.00
71774;BME280;59607;52.130;5.430;2023-03-21T01:36:37;101646.31;;;9.53;100.00
71774;BME280;59607;52.130;5.430;2023-03-21T01:39:04;101644.53;;;9.54;100.00
71774;BME280;59607;52.130;5.430;2023-03-21T01:41:41;101640.94;;;9.55;100.00
71774;BME280;59607;52.130;5.430;2023-03-21T01:44:17;101636.91;;;9.50;100.00
71774;BME280;59607;52.130;5.430;2023-03-21T01:46:49;101634.19;;;9.52;100.00
71774;BME280;59607;52.130;5.430;2023-03-21T01:49:41;101628.13;;;9.52;100.00
71774;BME280;59607;52.130;5.430;2023-03-21T01:52:23;101633.47;;;9.50;100.00
71774;BME280;59607;52.130;5.430;2023-03-21T01:55:09;101629.19;;;9.49;100.00
71774;BME280;59607;52.130;5.430;2023-03-21T01:57:53;101620.53;;;9.48;100.00
71774;BME280;59607;52.130;5.430;2023-03-21T02:00:32;101627.53;;;9.48;100.00
71774;BME280;59607;52.130;5.430;2023-03-21T02:03:13;101614.44;;;9.48;100.00
71774;BME280;59607;52.130;5.430;2023-03-21T02:06:01;101613.63;;;9.47;100.00
71774;BME280;59607;52.130;5.430;2023-03-21T02:08:37;101611.13;;;9.46;100.00
71774;BME280;59607;52.130;5.430;2023-03-21T02:11:11;101602.47;;;9.45;100.00
71774;BME280;59607;52.130;5.430;2023-03-21T02:13:37;101608.50;;;9.46;100.00
71774;BME280;59607;52.130;5.430;2023-03-21T02:16:37;101605.09;;;9.45;100.00
71774;BME280;59607;52.130;5.430;2023-03-21T02:28:10;101593.91;;;9.43;100.00
71774;BME280;59607;52.130;5.430;2023-03-21T02:31:04;101589.66;;;9.42;100.00
71774;BME280;59607;52.130;5.430;2023-03-21T02:37:09;101588.81;;;9.42;100.00
71774;BME280;59607;52.130;5.430;2023-03-21T02:46:01;101583.56;;;9.42;100.00
71774;BME280;59607;52.130;5.430;2023-03-21T02:48:34;101579.19;;;9.42;100.00
71774;BME280;59607;52.130;5.430;2023-03-21T02:51:17;101573.94;;;9.42;100.00
71774;BME280;59607;52.130;5.430;2023-03-21T02:53:54;101573.94;;;9.42;100.00
71774;BME280;59607;52.130;5.430;2023-03-21T02:56:48;101573.09;;;9.42;100.00
71774;BME280;59607;52.130;5.430;2023-03-21T02:59:20;101565.94;;;9.44;100.00
71774;BME280;59607;52.130;5.430;2023-03-21T03:01:58;101570.34;;;9.43;100.00
71774;BME280;59607;52.130;5.430;2023-03-21T03:04:26;101567.72;;;9.43;100.00
71774;BME280;59607;52.130;5.430;2023-03-21T03:09:55;101568.72;;;9.42;100.00
71774;BME280;59607;52.130;5.430;2023-03-21T03:18:11;101565.13;;;9.43;100.00
71774;BME280;59607;52.130;5.430;2023-03-21T03:23:52;101563.47;;;9.42;100.00
71774;BME280;59607;52.130;5.430;2023-03-21T03:26:34;101561.78;;;9.41;100.00
71774;BME280;59607;52.130;5.430;2023-03-21T03:29:27;101557.25;;;9.43;100.00
71774;BME280;59607;52.130;5.430;2023-03-21T03:32:11;101555.75;;;9.41;100.00
71774;BME280;59607;52.130;5.430;2023-03-21T03:35:02;101561.78;;;9.41;100.00
71774;BME280;59607;52.130;5.430;2023-03-21T03:37:39;101560.16;;;9.40;100.00
71774;BME280;59607;52.130;5.430;2023-03-21T03:42:53;101552.44;;;9.38;100.00
71774;BME280;59607;52.130;5.430;2023-03-21T03:45:28;101548.97;;;9.38;100.00
71774;BME280;59607;52.130;5.430;2023-03-21T03:50:52;101543.59;;;9.40;100.00
71774;BME280;59607;52.130;5.430;2023-03-21T03:54:15;101540.19;;;9.39;100.00
71774;BME280;59607;52.130;5.430;2023-03-21T03:56:50;101542.09;;;9.37;100.00
71774;BME280;59607;52.130;5.430;2023-03-21T03:59:17;101545.66;;;9.36;100.00
71774;BME280;59607;52.130;5.430;2023-03-21T04:01:50;101539.34;;;9.38;100.00
71774;BME280;59607;52.130;5.430;2023-03-21T04:04:16;101544.59;;;9.38;100.00
71774;BME280;59607;52.130;5.430;2023-03-21T04:06:43;101536.72;;;9.38;100.00
71774;BME280;59607;52.130;5.430;2023-03-21T04:09:20;101536.44;;;9.42;100.00
71774;BME280;59607;52.130;5.430;2023-03-21T04:12:02;101538.38;;;9.40;100.00
71774;BME280;59607;52.130;5.430;2023-03-21T04:14:37;101538.38;;;9.40;100.00
71774;BME280;59607;52.130;5.430;2023-03-21T04:17:11;101535.75;;;9.40;100.00
71774;BME280;59607;52.130;5.430;2023-03-21T04:19:47;101535.63;;;9.41;100.00
71774;BME280;59607;52.130;5.430;2023-03-21T04:22:22;101529.72;;;9.39;100.00
71774;BME280;59607;52.130;5.430;2023-03-21T04:24:48;101522.00;;;9.37;100.00
71774;BME280;59607;52.130;5.430;2023-03-21T04:27:15;101526.41;;;9.37;100.00
71774;BME280;59607;52.130;5.430;2023-03-21T04:29:47;101526.53;;;9.35;100.00
71774;BME280;59607;52.130;5.430;2023-03-21T04:32:14;101524.72;;;9.36;100.00
71774;BME280;59607;52.130;5.430;2023-03-21T04:34:52;101523.91;;;9.35;100.00
71774;BME280;59607;52.130;5.430;2023-03-21T04:37:22;101530.09;;;9.34;100.00
71774;BME280;59607;52.130;5.430;2023-03-21T04:39:58;101523.06;;;9.35;100.00
71774;BME280;59607;52.130;5.430;2023-03-21T04:42:33;101524.72;;;9.36;100.00
71774;BME280;59607;52.130;5.430;2023-03-21T04:45:00;101524.59;;;9.37;100.00
71774;BME280;59607;52.130;5.430;2023-03-21T04:47:29;101522.66;;;9.40;100.00
71774;BME280;59607;52.130;5.430;2023-03-21T04:49:56;101519.25;;;9.39;100.00
71774;BME280;59607;52.130;5.430;2023-03-21T04:52:22;101516.63;;;9.39;100.00
71774;BME280;59607;52.130;5.430;2023-03-21T04:54:51;101514.94;;;9.38;100.00
71774;BME280;59607;52.130;5.430;2023-03-21T04:57:22;101514.13;;;9.37;100.00
71774;BME280;59607;52.130;5.430;2023-03-21T04:59:48;101508.22;;;9.35;100.00
71774;BME280;59607;52.130;5.430;2023-03-21T05:02:23;101507.22;;;9.36;100.00
71774;BME280;59607;52.130;5.430;2023-03-21T05:04:49;101508.06;;;9.37;100.00
71774;BME280;59607;52.130;5.430;2023-03-21T05:07:16;101515.09;;;9.36;100.00
71774;BME280;59607;52.130;5.430;2023-03-21T05:09:42;101519.47;;;9.36;100.00
71774;BME280;59607;52.130;5.430;2023-03-21T05:12:09;101521.44;;;9.34;100.00
71774;BME280;59607;52.130;5.430;2023-03-21T05:14:35;101517.16;;;9.33;100.00
71774;BME280;59607;52.130;5.430;2023-03-21T05:17:01;101518.13;;;9.32;100.00
71774;BME280;59607;52.130;5.430;2023-03-21T05:19:34;101519.09;;;9.31;100.00
71774;BME280;59607;52.130;5.430;2023-03-21T05:22:10;101515.91;;;9.27;100.00
71774;BME280;59607;52.130;5.430;2023-03-21T05:24:40;101512.31;;;9.28;100.00
71774;BME280;59607;52.130;5.430;2023-03-21T05:27:07;101511.50;;;9.28;100.00
71774;BME280;59607;52.130;5.430;2023-03-21T05:29:48;101514.94;;;9.28;100.00
71774;BME280;59607;52.130;5.430;2023-03-21T05:32:15;101501.72;;;9.30;100.00
71774;BME280;59607;52.130;5.430;2023-03-21T05:34:44;101508.75;;;9.29;100.00
71774;BME280;59607;52.130;5.430;2023-03-21T05:37:10;101506.94;;;9.30;100.00
71774;BME280;59607;52.130;5.430;2023-03-21T05:39:43;101504.06;;;9.33;100.00
71774;BME280;59607;52.130;5.430;2023-03-21T05:42:09;101505.88;;;9.32;100.00
71774;BME280;59607;52.130;5.430;2023-03-21T05:44:36;101500.63;;;9.32;100.00
71774;BME280;59607;52.130;5.430;2023-03-21T05:47:17;101497.88;;;9.34;100.00
71774;BME280;59607;52.130;5.430;2023-03-21T05:49:49;101505.72;;;9.34;100.00
71774;BME280;59607;52.130;5.430;2023-03-21T05:52:16;101497.88;;;9.34;100.00
71774;BME280;59607;52.130;5.430;2023-03-21T05:54:51;101497.72;;;9.35;100.00
71774;BME280;59607;52.130;5.430;2023-03-21T05:57:18;101497.59;;;9.37;100.00
71774;BME280;59607;52.130;5.430;2023-03-21T05:59:44;101494.28;;;9.35;100.00
71774;BME280;59607;52.130;5.430;2023-03-21T06:02:15;101488.06;;;9.36;100.00
71774;BME280;59607;52.130;5.430;2023-03-21T06:04:42;101491.53;;;9.36;100.00
71774;BME280;59607;52.130;5.430;2023-03-21T06:07:10;101493.06;;;9.39;100.00
71774;BME280;59607;52.130;5.430;2023-03-21T06:09:41;101486.84;;;9.40;100.00
71774;BME280;59607;52.130;5.430;2023-03-21T06:12:11;101493.88;;;9.40;100.00
71774;BME280;59607;52.130;5.430;2023-03-21T06:14:44;101493.88;;;9.40;100.00
71774;BME280;59607;52.130;5.430;2023-03-21T06:17:10;101486.84;;;9.40;100.00
71774;BME280;59607;52.130;5.430;2023-03-21T06:19:47;101498.00;;;9.42;100.00
71774;BME280;59607;52.130;5.430;2023-03-21T06:22:15;101492.09;;;9.40;100.00
71774;BME280;59607;52.130;5.430;2023-03-21T06:24:55;101490.81;;;9.44;100.00
71774;BME280;59607;52.130;5.430;2023-03-21T06:27:24;101489.88;;;9.45;100.00
71774;BME280;59607;52.130;5.430;2023-03-21T06:29:50;101495.13;;;9.45;100.00
71774;BME280;59607;52.130;5.430;2023-03-21T06:32:17;101491.53;;;9.46;100.00
71774;BME280;59607;52.130;5.430;2023-03-21T06:34:49;101492.88;;;9.50;100.00
71774;BME280;59607;52.130;5.430;2023-03-21T06:37:18;101491.66;;;9.55;100.00
71774;BME280;59607;52.130;5.430;2023-03-21T06:39:45;101495.09;;;9.55;100.00
71774;BME280;59607;52.130;5.430;2023-03-21T06:42:17;101492.50;;;9.55;100.00
71774;BME280;59607;52.130;5.430;2023-03-21T06:44:44;101489.03;;;9.55;100.00
71774;BME280;59607;52.130;5.430;2023-03-21T06:47:10;101490.41;;;9.59;100.00
71774;BME280;59607;52.130;5.430;2023-03-21T06:49:37;101499.94;;;9.60;100.00
71774;BME280;59607;52.130;5.430;2023-03-21T06:52:06;101497.16;;;9.61;100.00
71774;BME280;59607;52.130;5.430;2023-03-21T06:54:38;101498.66;;;9.64;100.00
71774;BME280;59607;52.130;5.430;2023-03-21T06:57:05;101499.50;;;9.65;100.00
71774;BME280;59607;52.130;5.430;2023-03-21T06:59:31;101498.38;;;9.67;100.00
71774;BME280;59607;52.130;5.430;2023-03-21T07:01:58;101497.44;;;9.68;100.00
71774;BME280;59607;52.130;5.430;2023-03-21T07:04:42;101496.03;;;9.74;100.00
71774;BME280;59607;52.130;5.430;2023-03-21T07:07:11;101500.16;;;9.77;100.00
71774;BME280;59607;52.130;5.430;2023-03-21T07:09:39;101497.13;;;9.81;100.00
71774;BME280;59607;52.130;5.430;2023-03-21T07:12:08;101497.81;;;9.83;100.00
71774;BME280;59607;52.130;5.430;2023-03-21T07:14:40;101499.34;;;9.86;100.00
71774;BME280;59607;52.130;5.430;2023-03-21T07:17:09;101503.75;;;9.85;100.00
71774;BME280;59607;52.130;5.430;2023-03-21T07:19:39;101494.75;;;9.88;100.00
71774;BME280;59607;52.130;5.430;2023-03-21T07:22:07;101496.28;;;9.91;100.00
71774;BME280;59607;52.130;5.430;2023-03-21T07:24:37;101506.63;;;9.92;100.00
71774;BME280;59607;52.130;5.430;2023-03-21T07:27:06;101509.25;;;9.92;100.00
71774;BME280;59607;52.130;5.430;2023-03-21T07:29:33;101501.53;;;9.91;100.00
71774;BME280;59607;52.130;5.430;2023-03-21T07:32:06;101507.84;;;9.98;100.00
71774;BME280;59607;52.130;5.430;2023-03-21T07:34:32;101502.44;;;9.99;100.00
71774;BME280;59607;52.130;5.430;2023-03-21T07:37:14;101503.56;;;9.97;100.00
71774;BME280;59607;52.130;5.430;2023-03-21T07:39:55;101505.50;;;9.95;100.00
71774;BME280;59607;52.130;5.430;2023-03-21T07:42:32;101501.66;;;9.89;100.00
71774;BME280;59607;52.130;5.430;2023-03-21T07:44:58;101502.34;;;9.91;100.00
71774;BME280;59607;52.130;5.430;2023-03-21T07:47:25;101496.53;;;9.97;100.00
71774;BME280;59607;52.130;5.430;2023-03-21T07:49:54;101499.41;;;10.04;100.00
71774;BME280;59607;52.130;5.430;2023-03-21T07:52:21;101498.03;;;10.10;100.00
71774;BME280;59607;52.130;5.430;2023-03-21T07:54:48;101487.25;;;10.13;100.00
71774;BME280;59607;52.130;5.430;2023-03-21T07:57:19;101482.25;;;10.20;100.00
71774;BME280;59607;52.130;5.430;2023-03-21T07:59:46;101481.44;;;10.19;100.00
71774;BME280;59607;52.130;5.430;2023-03-21T08:02:20;101475.50;;;10.17;100.00
71774;BME280;59607;52.130;5.430;2023-03-21T08:04:47;101474.09;;;10.23;100.00
71774;BME280;59607;52.130;5.430;2023-03-21T08:07:14;101474.25;;;10.21;100.00
71774;BME280;59607;52.130;5.430;2023-03-21T08:09:46;101472.97;;;10.25;100.00
71774;BME280;59607;52.130;5.430;2023-03-21T08:12:13;101467.00;;;10.33;100.00
71774;BME280;59607;52.130;5.430;2023-03-21T08:14:53;101464.09;;;10.36;100.00
71774;BME280;59607;52.130;5.430;2023-03-21T08:17:22;101471.00;;;10.37;100.00
71774;BME280;59607;52.130;5.430;2023-03-21T08:19:51;101473.47;;;10.39;100.00
71774;BME280;59607;52.130;5.430;2023-03-21T08:22:18;101473.63;;;10.37;100.00
71774;BME280;59607;52.130;5.430;2023-03-21T08:24:54;101473.78;;;10.36;100.00
71774;BME280;59607;52.130;5.430;2023-03-21T08:27:24;101467.09;;;10.42;100.00
71774;BME280;59607;52.130;5.430;2023-03-21T08:29:57;101460.19;;;10.51;100.00
71774;BME280;59607;52.130;5.430;2023-03-21T08:32:26;101462.13;;;10.48;100.00
71774;BME280;59607;52.130;5.430;2023-03-21T08:35:05;101459.59;;;10.57;100.00
71774;BME280;59607;52.130;5.430;2023-03-21T08:37:41;101451.75;;;10.57;100.00
71774;BME280;59607;52.130;5.430;2023-03-21T08:40:14;101456.84;;;10.58;100.00
71774;BME280;59607;52.130;5.430;2023-03-21T08:42:44;101455.06;;;10.59;100.00
71774;BME280;59607;52.130;5.430;2023-03-21T08:45:16;101456.00;;;10.58;100.00
71774;BME280;59607;52.130;5.430;2023-03-21T08:47:45;101452.13;;;10.62;100.00
71774;BME280;59607;52.130;5.430;2023-03-21T08:50:19;101448.91;;;10.68;100.00
71774;BME280;59607;52.130;5.430;2023-03-21T08:52:52;101449.28;;;10.73;100.00
71774;BME280;59607;52.130;5.430;2023-03-21T08:55:18;101447.19;;;10.77;100.00
71774;BME280;59607;52.130;5.430;2023-03-21T08:57:54;101437.59;;;10.86;100.00
71774;BME280;59607;52.130;5.430;2023-03-21T09:00:27;101426.97;;;10.88;100.00
71774;BME280;59607;52.130;5.430;2023-03-21T09:02:58;101429.81;;;10.94;100.00
71774;BME280;59607;52.130;5.430;2023-03-21T09:05:30;101428.06;;;11.03;100.00
71774;BME280;59607;52.130;5.430;2023-03-21T09:08:04;101426.34;;;11.12;100.00
71774;BME280;59607;52.130;5.430;2023-03-21T09:10:38;101423.41;;;11.15;100.00
71774;BME280;59607;52.130;5.430;2023-03-21T09:13:05;101420.25;;;11.11;100.00
71774;BME280;59607;52.130;5.430;2023-03-21T09:15:35;101410.28;;;11.15;100.00
71774;BME280;59607;52.130;5.430;2023-03-21T09:18:01;101407.50;;;11.17;100.00
71774;BME280;59607;52.130;5.430;2023-03-21T09:20:45;101404.41;;;11.21;100.00
71774;BME280;59607;52.130;5.430;2023-03-21T09:23:13;101411.16;;;11.24;100.00
71774;BME280;59607;52.130;5.430;2023-03-21T09:25:43;101412.28;;;11.21;100.00
71774;BME280;59607;52.130;5.430;2023-03-21T09:28:12;101407.72;;;11.23;100.00
71774;BME280;59607;52.130;5.430;2023-03-21T09:30:40;101400.16;;;11.20;100.00
71774;BME280;59607;52.130;5.430;2023-03-21T09:33:09;101393.09;;;11.21;100.00
71774;BME280;59607;52.130;5.430;2023-03-21T09:35:52;101391.41;;;11.38;100.00
71774;BME280;59607;52.130;5.430;2023-03-21T09:38:18;101388.00;;;11.46;100.00
71774;BME280;59607;52.130;5.430;2023-03-21T09:41:19;101395.38;;;11.42;100.00
71774;BME280;59607;52.130;5.430;2023-03-21T09:47:02;101384.97;;;11.59;100.00
71774;BME280;59607;52.130;5.430;2023-03-21T09:49:40;101376.94;;;11.60;100.00
71774;BME280;59607;52.130;5.430;2023-03-21T09:52:25;101372.03;;;11.66;100.00
71774;BME280;59607;52.130;5.430;2023-03-21T09:55:02;101379.66;;;11.77;100.00
71774;BME280;59607;52.130;5.430;2023-03-21T09:57:43;101375.19;;;11.78;100.00
71774;BME280;59607;52.130;5.430;2023-03-21T10:00:19;101383.06;;;11.78;100.00
71774;BME280;59607;52.130;5.430;2023-03-21T10:02:52;101377.50;;;11.81;100.00
71774;BME280;59607;52.130;5.430;2023-03-21T10:05:38;101375.38;;;11.84;100.00
71774;BME280;59607;52.130;5.430;2023-03-21T10:08:17;101375.91;;;11.88;100.00
71774;BME280;59607;52.130;5.430;2023-03-21T10:11:09;101376.84;;;11.79;100.00
71774;BME280;59607;52.130;5.430;2023-03-21T10:13:47;101374.38;;;11.77;100.00
71774;BME280;59607;52.130;5.430;2023-03-21T10:16:34;101363.41;;;11.82;100.00
71774;BME280;59607;52.130;5.430;2023-03-21T10:19:10;101374.59;;;11.92;100.00
71774;BME280;59607;52.130;5.430;2023-03-21T10:21:41;101379.63;;;12.12;100.00
71774;BME280;59607;52.130;5.430;2023-03-21T10:24:27;101381.78;;;12.17;100.00
71774;BME280;59607;52.130;5.430;2023-03-21T10:27:08;101384.09;;;12.20;100.00
71774;BME280;59607;52.130;5.430;2023-03-21T10:29:42;101365.84;;;12.18;100.00
71774;BME280;59607;52.130;5.430;2023-03-21T10:32:16;101369.97;;;12.21;100.00
71774;BME280;59607;52.130;5.430;2023-03-21T10:34:49;101362.41;;;12.34;100.00
71774;BME280;59607;52.130;5.430;2023-03-21T10:37:40;101356.06;;;12.45;100.00
71774;BME280;59607;52.130;5.430;2023-03-21T10:40:18;101348.81;;;12.56;100.00
71774;BME280;59607;52.130;5.430;2023-03-21T10:43:38;101357.22;;;12.59;100.00
71774;BME280;59607;52.130;5.430;2023-03-21T10:46:38;101331.88;;;12.67;100.00
71774;BME280;59607;52.130;5.430;2023-03-21T10:49:13;101340.59;;;12.59;100.00
71774;BME280;59607;52.130;5.430;2023-03-21T10:52:01;101334.84;;;12.72;100.00
71774;BME280;59607;52.130;5.430;2023-03-21T10:54:34;101334.66;;;12.99;100.00
71774;BME280;59607;52.130;5.430;2023-03-21T10:57:21;101342.22;;;13.10;100.00
71774;BME280;59607;52.130;5.430;2023-03-21T10:59:59;101346.16;;;13.14;100.00
71774;BME280;59607;52.130;5.430;2023-03-21T11:02:32;101349.28;;;13.18;100.00
71774;BME280;59607;52.130;5.430;2023-03-21T11:05:05;101348.13;;;13.20;100.00
71774;BME280;59607;52.130;5.430;2023-03-21T11:07:35;101339.25;;;13.13;100.00
71774;BME280;59607;52.130;5.430;2023-03-21T11:10:30;101340.38;;;13.19;100.00
71774;BME280;59607;52.130;5.430;2023-03-21T11:13:16;101351.06;;;13.26;99.50
71774;BME280;59607;52.130;5.430;2023-03-21T11:16:22;101343.19;;;13.26;100.00
71774;BME280;59607;52.130;5.430;2023-03-21T11:18:59;101340.69;;;13.32;99.08
71774;BME280;59607;52.130;5.430;2023-03-21T11:21:35;101332.59;;;13.42;100.00
71774;BME280;59607;52.130;5.430;2023-03-21T11:24:05;101337.88;;;13.51;99.86
71774;BME280;59607;52.130;5.430;2023-03-21T11:26:36;101346.75;;;13.58;99.13
71774;BME280;59607;52.130;5.430;2023-03-21T11:32:24;101336.31;;;13.73;95.14
71774;BME280;59607;52.130;5.430;2023-03-21T11:37:50;101316.03;;;14.05;93.00
71774;BME280;59607;52.130;5.430;2023-03-21T11:40:38;101333.13;;;13.86;91.65
71774;BME280;59607;52.130;5.430;2023-03-21T11:46:06;101305.13;;;13.85;97.16
71774;BME280;59607;52.130;5.430;2023-03-21T11:48:44;101308.22;;;13.89;96.42
71774;BME280;59607;52.130;5.430;2023-03-21T11:54:14;101303.31;;;13.77;95.50
71774;BME280;59607;52.130;5.430;2023-03-21T11:57:05;101307.47;;;13.72;95.01
71774;BME280;59607;52.130;5.430;2023-03-21T11:59:41;101301.34;;;13.79;91.57
71774;BME280;59607;52.130;5.430;2023-03-21T12:05:16;101312.09;;;13.69;94.11
71774;BME280;59607;52.130;5.430;2023-03-21T12:10:49;101305.56;;;13.49;95.67
71774;BME280;59607;52.130;5.430;2023-03-21T12:16:54;101303.28;;;13.45;96.67
71774;BME280;59607;52.130;5.430;2023-03-21T12:19:38;101296.81;;;13.65;95.16
71774;BME280;59607;52.130;5.430;2023-03-21T12:25:28;101297.66;;;13.57;95.14
71774;BME280;59607;52.130;5.430;2023-03-21T12:28:31;101297.84;;;13.47;95.32
71774;BME280;59607;52.130;5.430;2023-03-21T12:39:35;101274.66;;;13.74;94.46
71774;BME280;59607;52.130;5.430;2023-03-21T12:44:44;101281.34;;;13.62;92.42
71774;BME280;59607;52.130;5.430;2023-03-21T12:47:26;101266.81;;;13.66;94.23
71774;BME280;59607;52.130;5.430;2023-03-21T12:50:20;101265.44;;;13.78;91.33
71774;BME280;59607;52.130;5.430;2023-03-21T12:53:17;101261.06;;;13.94;90.62
71774;BME280;59607;52.130;5.430;2023-03-21T12:55:48;101266.03;;;13.89;85.94
71774;BME280;59607;52.130;5.430;2023-03-21T12:58:23;101263.88;;;13.92;88.58
71774;BME280;59607;52.130;5.430;2023-03-21T13:00:58;101254.56;;;14.28;87.54
71774;BME280;59607;52.130;5.430;2023-03-21T13:06:39;101256.16;;;14.53;82.60
71774;BME280;59607;52.130;5.430;2023-03-21T13:09:28;101244.56;;;14.77;85.59
71774;BME280;59607;52.130;5.430;2023-03-21T13:12:35;101248.69;;;14.56;81.04
71774;BME280;59607;52.130;5.430;2023-03-21T13:18:50;101232.09;;;14.71;80.00
71774;BME280;59607;52.130;5.430;2023-03-21T13:21:26;101234.06;;;14.69;77.45
71774;BME280;59607;52.130;5.430;2023-03-21T13:23:58;101230.66;;;14.84;75.44
71774;BME280;59607;52.130;5.430;2023-03-21T13:26:36;101212.41;;;14.74;73.26
71774;BME280;59607;52.130;5.430;2023-03-21T13:29:18;101215.75;;;14.52;71.55
71774;BME280;59607;52.130;5.430;2023-03-21T13:31:49;101220.91;;;14.46;72.93
71774;BME280;59607;52.130;5.430;2023-03-21T13:34:22;101215.34;;;14.40;73.62
71774;BME280;59607;52.130;5.430;2023-03-21T13:36:52;101222.94;;;14.43;73.21
71774;BME280;59607;52.130;5.430;2023-03-21T13:39:27;101220.75;;;14.47;73.58
71774;BME280;59607;52.130;5.430;2023-03-21T13:41:54;101218.75;;;14.49;71.77
71774;BME280;59607;52.130;5.430;2023-03-21T13:44:48;101215.50;;;14.62;73.30
71774;BME280;59607;52.130;5.430;2023-03-21T13:55:40;101204.78;;;14.40;72.19
71774;BME280;59607;52.130;5.430;2023-03-21T13:58:39;101199.16;;;14.28;72.29
71774;BME280;59607;52.130;5.430;2023-03-21T14:01:37;101197.88;;;14.01;72.53
71774;BME280;59607;52.130;5.430;2023-03-21T14:04:18;101201.22;;;13.94;73.48
71774;BME280;59607;52.130;5.430;2023-03-21T14:07:01;101197.47;;;13.89;72.73
71774;BME280;59607;52.130;5.430;2023-03-21T14:09:40;101194.72;;;13.82;73.84
71774;BME280;59607;52.130;5.430;2023-03-21T14:12:13;101194.53;;;13.84;73.94
71774;BME280;59607;52.130;5.430;2023-03-21T14:14:49;101193.94;;;13.97;75.51
71774;BME280;59607;52.130;5.430;2023-03-21T14:17:27;101183.50;;;14.03;72.78
71774;BME280;59607;52.130;5.430;2023-03-21T14:20:10;101185.59;;;13.93;73.98
71774;BME280;59607;52.130;5.430;2023-03-21T14:22:40;101187.22;;;13.94;75.76
71774;BME280;59607;52.130;5.430;2023-03-21T14:25:12;101187.75;;;13.89;73.94
71774;BME280;59607;52.130;5.430;2023-03-21T14:27:42;101191.31;;;13.73;75.53
71774;BME280;59607;52.130;5.430;2023-03-21T14:30:23;101199.09;;;13.66;76.79
71774;BME280;59607;52.130;5.430;2023-03-21T14:32:58;101190.84;;;13.69;77.41
71774;BME280;59607;52.130;5.430;2023-03-21T14:35:30;101174.81;;;13.79;76.69
71774;BME280;59607;52.130;5.430;2023-03-21T14:38:04;101180.66;;;13.90;76.49
71774;BME280;59607;52.130;5.430;2023-03-21T14:40:46;101169.59;;;13.94;76.64
71774;BME280;59607;52.130;5.430;2023-03-21T14:43:13;101166.41;;;13.99;76.41
71774;BME280;59607;52.130;5.430;2023-03-21T14:45:42;101178.41;;;14.02;77.73
71774;BME280;59607;52.130;5.430;2023-03-21T14:48:27;101172.09;;;13.88;76.82
71774;BME280;59607;52.130;5.430;2023-03-21T14:51:12;101168.53;;;13.80;77.69
71774;BME280;59607;52.130;5.430;2023-03-21T14:53:40;101174.97;;;13.78;78.61
71774;BME280;59607;52.130;5.430;2023-03-21T14:58:47;101179.38;;;13.62;79.37
71774;BME280;59607;52.130;5.430;2023-03-21T15:01:29;101172.44;;;13.61;78.47